Time;durP1;ratioP1;P1;durP2;ratioP2;P2;SDS_P1;SDS_P2;PMS_P1;PMS_P2;Temp;Humidity;BMP_temperature;BMP_pressure;BME280_temperature;BME280_humidity;BME280_pressure;Samples;Min_cycle;Max_cycle;Signal;HPM_P1;HPM_P2
2022/12/13 04:50:10;;;;;;;22.17;8.32;;;;;;;-3.62;100.00;100162.53;5545512;27;20152;-85
2022/12/13 04:53:17;;;;;;;18.58;8.63;;;;;;;-3.65;100.00;100158.28;5343436;33;34014;-89
2022/12/13 04:56:20;;;;;;;16.80;8.77;;;;;;;-3.71;100.00;100169.19;5343497;33;34014;-88
2022/12/13 04:59:23;;;;;;;18.55;8.10;;;;;;;-3.67;100.00;100160.16;5329565;33;32786;-89
2022/12/13 05:02:25;;;;;;;15.98;8.88;;;;;;;-3.70;100.00;100165.59;5343050;33;34088;-85
2022/12/13 05:05:28;;;;;;;16.98;9.45;;;;;;;-3.70;100.00;100162.97;5343671;33;33661;-85
2022/12/13 05:08:31;;;;;;;15.30;8.18;;;;;;;-3.74;100.00;100159.69;5344054;33;33985;-84
2022/12/13 05:11:34;;;;;;;17.42;9.30;;;;;;;-3.71;100.00;100156.03;5346035;33;34803;-84
2022/12/13 05:14:37;;;;;;;19.60;9.25;;;;;;;-3.74;100.00;100161.47;5352911;33;34167;-84
2022/12/13 05:17:40;;;;;;;16.50;8.98;;;;;;;-3.77;100.00;100164.25;5344587;33;33922;-84
2022/12/13 05:20:44;;;;;;;16.70;8.40;;;;;;;-3.89;100.00;100158.81;5353696;33;34102;-84
2022/12/13 05:23:49;;;;;;;17.92;8.60;;;;;;;-3.89;100.00;100152.69;5342708;33;33550;-84
2022/12/13 05:26:52;;;;;;;20.17;8.95;;;;;;;-3.85;100.00;100156.84;5357829;33;34396;-84
2022/12/13 05:29:55;;;;;;;15.60;8.75;;;;;;;-3.87;100.00;100148.19;5357886;33;35118;-83
2022/12/13 05:33:06;;;;;;;13.93;7.78;;;;;;;-3.81;100.00;100155.72;5353794;33;34986;-84
2022/12/13 05:36:09;;;;;;;18.60;9.32;;;;;;;-3.80;100.00;100149.53;5343116;33;34338;-84
2022/12/13 05:39:12;;;;;;;19.62;9.18;;;;;;;-3.93;100.00;100159.91;5343371;33;34142;-84
2022/12/13 05:42:31;;;;;;;17.33;8.45;;;;;;;-3.91;100.00;100158.06;5344581;33;33744;-85
2022/12/13 05:45:34;;;;;;;18.83;9.15;;;;;;;-3.92;100.00;100172.16;5344635;33;35073;-84
2022/12/13 05:48:37;;;;;;;18.73;10.10;;;;;;;-4.02;100.00;100173.63;5352730;33;34156;-84
2022/12/13 05:51:39;;;;;;;14.75;8.38;;;;;;;-3.97;100.00;100171.56;5346228;33;33937;-84
2022/12/13 05:54:42;;;;;;;19.55;9.95;;;;;;;-3.94;100.00;100160.88;5345062;33;34147;-84
2022/12/13 05:57:45;;;;;;;22.85;10.70;;;;;;;-3.93;100.00;100169.59;5343429;33;34029;-84
2022/12/13 06:00:53;;;;;;;17.12;9.88;;;;;;;-3.96;100.00;100172.41;5344383;33;34534;-85
2022/12/13 06:03:56;;;;;;;18.17;9.25;;;;;;;-3.95;100.00;100169.72;5344661;33;34192;-84
2022/12/13 06:07:01;;;;;;;18.60;8.77;;;;;;;-4.01;100.00;100170.03;5343257;33;33745;-84
2022/12/13 06:10:06;;;;;;;18.33;9.48;;;;;;;-4.12;100.00;100169.84;5343095;33;34651;-84
2022/12/13 06:13:15;;;;;;;17.00;9.05;;;;;;;-4.14;100.00;100183.06;5343424;33;33730;-84
2022/12/13 06:16:34;;;;;;;18.08;8.70;;;;;;;-4.24;100.00;100183.69;5344870;33;34324;-84
2022/12/13 06:19:37;;;;;;;15.02;8.23;;;;;;;-4.24;100.00;100186.31;5350660;33;34324;-84
2022/12/13 06:22:40;;;;;;;17.08;8.35;;;;;;;-4.19;100.00;100189.53;5346539;33;34333;-84
2022/12/13 06:25:42;;;;;;;19.48;9.25;;;;;;;-4.10;100.00;100189.00;5344905;33;34189;-84
2022/12/13 06:28:52;;;;;;;18.02;8.60;;;;;;;-4.02;100.00;100186.75;5346440;33;34294;-87
2022/12/13 06:31:59;;;;;;;18.98;10.35;;;;;;;-4.14;100.00;100188.31;5342512;33;32963;-86
2022/12/13 06:35:04;;;;;;;18.58;8.95;;;;;;;-3.98;100.00;100195.31;5358725;33;35432;-85
2022/12/13 06:38:27;;;;;;;19.42;9.00;;;;;;;-3.88;100.00;100199.94;5354936;33;34936;-85
2022/12/13 06:41:34;;;;;;;17.48;8.77;;;;;;;-3.84;100.00;100200.59;5342594;33;34076;-85
2022/12/13 06:44:36;;;;;;;19.15;8.85;;;;;;;-3.78;100.00;100207.28;5342992;33;33809;-85
2022/12/13 06:47:39;;;;;;;18.05;9.55;;;;;;;-3.90;100.00;100206.22;5343765;33;33588;-85
2022/12/13 06:50:43;;;;;;;19.92;9.93;;;;;;;-3.89;100.00;100219.31;5342587;33;33953;-85
2022/12/13 06:53:46;;;;;;;17.75;8.88;;;;;;;-3.83;100.00;100214.59;5329278;33;33662;-85
2022/12/13 06:56:49;;;;;;;15.65;8.15;;;;;;;-3.71;100.00;100214.75;5343548;33;33999;-84
2022/12/13 06:59:52;;;;;;;15.00;8.48;;;;;;;-3.65;100.00;100226.69;5333889;33;287947;-85
2022/12/13 07:02:55;;;;;;;17.65;8.82;;;;;;;-3.46;100.00;100219.38;5339870;33;34450;-85
2022/12/13 07:05:59;;;;;;;17.50;8.68;;;;;;;-3.42;100.00;100220.88;5325754;33;34474;-84
2022/12/13 07:09:02;;;;;;;20.02;9.77;;;;;;;-3.34;100.00;100223.03;5328032;33;34556;-85
2022/12/13 07:12:05;;;;;;;15.95;8.35;;;;;;;-3.22;100.00;100226.72;5337918;33;33895;-84
2022/12/13 07:15:09;;;;;;;17.55;8.82;;;;;;;-3.15;100.00;100224.56;5344128;33;33763;-85
2022/12/13 07:18:12;;;;;;;16.77;8.70;;;;;;;-3.07;100.00;100231.06;5341565;33;35639;-85
2022/12/13 07:21:17;;;;;;;20.35;8.93;;;;;;;-3.05;100.00;100238.84;5327439;33;35101;-85
2022/12/13 07:24:24;;;;;;;18.20;8.57;;;;;;;-2.93;100.00;100239.88;5337268;33;34573;-84
2022/12/13 07:27:26;;;;;;;18.02;8.85;;;;;;;-2.86;100.00;100238.56;5350354;33;35315;-85
2022/12/13 07:30:34;;;;;;;19.05;8.93;;;;;;;-2.67;100.00;100241.72;5328031;33;33648;-84
2022/12/13 07:33:43;;;;;;;17.62;8.60;;;;;;;-2.54;100.00;100242.66;5337133;33;35003;-84
2022/12/13 07:36:48;;;;;;;16.52;9.02;;;;;;;-2.43;100.00;100238.47;5330647;33;34385;-84
2022/12/13 07:39:51;;;;;;;19.17;9.25;;;;;;;-2.34;100.00;100227.34;5340149;33;35031;-85
2022/12/13 07:42:56;;;;;;;16.37;8.43;;;;;;;-2.23;100.00;100238.03;5340878;33;34096;-84
2022/12/13 07:46:01;;;;;;;17.95;9.38;;;;;;;-2.07;100.00;100245.81;5329717;33;35438;-84
2022/12/13 07:49:04;;;;;;;19.40;9.13;;;;;;;-2.00;100.00;100247.09;5331894;33;34554;-84
2022/12/13 07:52:11;;;;;;;19.75;9.18;;;;;;;-1.97;100.00;100249.50;5335544;33;34132;-85
2022/12/13 07:55:15;;;;;;;19.37;9.52;;;;;;;-1.87;100.00;100244.50;5337872;33;33712;-85
2022/12/13 07:58:17;;;;;;;15.73;8.75;;;;;;;-1.82;100.00;100245.00;5340446;33;34863;-84
2022/12/13 08:01:20;;;;;;;17.45;8.20;;;;;;;-1.71;100.00;100247.78;5346505;33;33862;-84
2022/12/13 08:04:23;;;;;;;17.20;8.77;;;;;;;-1.70;100.00;100243.34;5331457;33;34590;-84
2022/12/13 08:07:26;;;;;;;15.82;8.65;;;;;;;-1.64;100.00;100254.37;5328651;33;33434;-84
2022/12/13 08:10:30;;;;;;;20.20;9.98;;;;;;;-1.58;100.00;100253.06;5331085;33;34531;-88
2022/12/13 08:13:33;;;;;;;18.60;8.70;;;;;;;-1.47;100.00;100258.47;5335160;33;34167;-89
2022/12/13 08:16:36;;;;;;;17.10;8.85;;;;;;;-1.36;100.00;100263.03;5330132;33;35050;-89
2022/12/13 08:19:39;;;;;;;18.52;8.93;;;;;;;-1.37;99.35;100262.22;5325490;33;33315;-89
2022/12/13 08:22:42;;;;;;;20.02;8.77;;;;;;;-1.37;98.34;100264.00;5338776;33;34621;-85
2022/12/13 08:25:52;;;;;;;16.02;8.73;;;;;;;-1.37;98.08;100275.41;5326731;33;35110;-85
2022/12/13 08:28:55;;;;;;;19.92;8.85;;;;;;;-1.26;98.51;100273.81;5339459;33;35206;-85
2022/12/13 08:31:59;;;;;;;18.48;9.07;;;;;;;-1.17;96.75;100265.25;5345425;33;35043;-85
2022/12/13 08:35:03;;;;;;;18.37;9.38;;;;;;;-1.08;95.78;100262.00;5331890;33;34120;-84
2022/12/13 08:38:06;;;;;;;19.90;9.10;;;;;;;-0.99;96.07;100255.25;5336890;33;34023;-83
2022/12/13 08:41:11;;;;;;;14.40;8.40;;;;;;;-1.01;96.05;100257.97;5318163;33;32232;-84
2022/12/13 08:44:13;;;;;;;14.57;8.00;;;;;;;-0.93;95.17;100260.09;5326290;33;34008;-84
2022/12/13 08:47:17;;;;;;;18.08;8.95;;;;;;;-0.76;95.40;100269.47;5330393;33;32371;-84
2022/12/13 08:50:28;;;;;;;16.55;8.40;;;;;;;-0.80;93.58;100265.34;5329427;33;33538;-84
2022/12/13 08:53:31;;;;;;;18.35;8.65;;;;;;;-0.72;93.03;100268.31;5348607;33;34295;-84
2022/12/13 08:56:42;;;;;;;15.95;8.77;;;;;;;-0.52;92.61;100265.09;5336352;33;33626;-84
2022/12/13 08:59:46;;;;;;;20.48;9.55;;;;;;;-0.41;92.77;100261.69;5337102;33;33980;-85
2022/12/13 09:02:49;;;;;;;15.90;8.50;;;;;;;-0.27;91.96;100265.97;5330588;33;34441;-85
2022/12/13 09:05:52;;;;;;;15.82;8.43;;;;;;;-0.32;90.50;100258.38;5338077;33;35403;-84
2022/12/13 09:08:55;;;;;;;16.30;8.52;;;;;;;-0.25;89.46;100262.25;5335736;33;34574;-84
2022/12/13 09:11:58;;;;;;;14.43;8.63;;;;;;;-0.17;87.71;100263.50;5334787;33;33906;-85
2022/12/13 09:15:02;;;;;;;15.70;7.93;;;;;;;-0.20;87.00;100266.38;5332545;33;35015;-86
2022/12/13 09:18:05;;;;;;;13.20;7.25;;;;;;;-0.09;85.23;100263.78;5314216;33;32506;-83
2022/12/13 09:21:17;;;;;;;13.02;7.68;;;;;;;-0.03;86.31;100255.38;5335767;33;34308;-85
2022/12/13 09:24:32;;;;;;;12.85;7.62;;;;;;;0.07;84.04;100261.69;5333387;33;33973;-84
2022/12/13 09:27:38;;;;;;;16.35;6.22;;;;;;;0.01;83.86;100246.28;5341256;33;32618;-84
2022/12/13 09:30:42;;;;;;;17.10;6.93;;;;;;;-0.04;84.10;100251.88;5340232;33;34303;-84
2022/12/13 09:33:45;;;;;;;13.52;6.55;;;;;;;0.05;83.89;100249.53;5335674;33;34773;-84
2022/12/13 09:36:48;;;;;;;14.18;6.90;;;;;;;0.13;81.68;100244.50;5334066;33;32954;-84
2022/12/13 09:39:51;;;;;;;12.95;7.00;;;;;;;0.20;82.11;100243.09;5327503;33;32879;-84
2022/12/13 09:42:58;;;;;;;12.85;6.45;;;;;;;0.37;81.91;100240.03;5336026;33;33508;-84
2022/12/13 09:46:26;;;;;;;12.52;7.28;;;;;;;0.41;82.21;100241.50;5331336;33;34066;-89
2022/12/13 09:49:46;;;;;;;8.18;5.60;;;;;;;0.38;80.57;100240.84;5329452;33;34613;-84
2022/12/13 09:52:56;;;;;;;10.15;6.20;;;;;;;0.48;77.70;100239.22;5336666;33;33845;-85
2022/12/13 09:56:03;;;;;;;10.00;6.75;;;;;;;0.41;79.38;100243.28;5343498;33;34079;-84
2022/12/13 09:59:13;;;;;;;12.75;6.70;;;;;;;0.35;79.44;100244.59;5338171;33;35067;-84
2022/12/13 10:02:25;;;;;;;9.55;5.78;;;;;;;0.19;79.98;100242.25;5327780;33;34727;-84
2022/12/13 10:05:34;;;;;;;10.30;6.10;;;;;;;0.29;79.13;100245.03;5330622;33;34659;-84
2022/12/13 10:08:46;;;;;;;8.70;5.82;;;;;;;0.32;79.66;100244.84;5332125;33;34313;-84
2022/12/13 10:11:51;;;;;;;11.27;5.82;;;;;;;0.55;79.81;100235.12;5344412;33;34268;-84
2022/12/13 10:14:58;;;;;;;10.07;5.87;;;;;;;0.71;79.63;100229.50;5352017;33;34369;-84
2022/12/13 10:18:03;;;;;;;10.05;6.72;;;;;;;0.65;78.12;100230.81;5341787;33;33764;-84
2022/12/13 10:21:38;;;;;;;11.55;7.00;;;;;;;0.63;76.59;100224.78;5338689;33;34555;-84
2022/12/13 10:24:51;;;;;;;11.00;6.40;;;;;;;0.73;77.58;100226.72;5328923;33;34897;-84
2022/12/13 10:27:54;;;;;;;14.35;6.95;;;;;;;0.73;78.73;100219.63;5326011;33;32244;-84
2022/12/13 10:31:00;;;;;;;10.70;7.18;;;;;;;0.59;77.98;100219.87;5329478;33;33760;-88
2022/12/13 10:34:04;;;;;;;12.18;6.87;;;;;;;0.74;78.98;100221.31;5337072;33;34258;-89
2022/12/13 10:37:25;;;;;;;12.27;6.37;;;;;;;0.89;80.33;100206.87;5340277;33;34201;-89
2022/12/13 10:40:39;;;;;;;10.68;7.12;;;;;;;0.90;77.65;100218.31;5338078;33;34780;-83
2022/12/13 10:43:43;;;;;;;13.13;6.55;;;;;;;0.90;78.04;100207.72;5312277;33;32572;-83
2022/12/13 10:46:51;;;;;;;15.18;7.15;;;;;;;0.90;78.14;100213.00;5319510;33;33508;-83
2022/12/13 10:49:57;;;;;;;11.93;7.07;;;;;;;1.11;76.49;100208.69;5330309;33;32402;-83
2022/12/13 10:53:01;;;;;;;12.35;7.20;;;;;;;1.19;75.52;100207.22;5341923;33;33867;-85
2022/12/13 10:56:05;;;;;;;11.60;7.00;;;;;;;1.01;75.13;100207.72;5330485;33;33872;-84
2022/12/13 10:59:29;;;;;;;13.98;7.93;;;;;;;1.19;75.30;100197.47;5333625;33;34010;-84
2022/12/13 11:02:34;;;;;;;14.32;6.75;;;;;;;1.31;75.19;100196.47;5313557;33;32819;-84
2022/12/13 11:05:38;;;;;;;12.30;6.87;;;;;;;1.21;73.96;100197.34;5338991;33;35911;-84
2022/12/13 11:08:41;;;;;;;12.60;7.03;;;;;;;1.29;73.49;100187.81;5332309;33;34427;-84
2022/12/13 11:11:44;;;;;;;11.73;7.07;;;;;;;1.33;74.03;100191.91;5331494;33;34858;-83
2022/12/13 11:15:00;;;;;;;15.93;7.55;;;;;;;1.39;73.29;100185.25;5339433;33;33939;-84
2022/12/13 11:18:22;;;;;;;13.65;7.53;;;;;;;1.53;71.69;100182.34;5332840;33;35381;-84
2022/12/13 11:21:29;;;;;;;12.63;6.35;;;;;;;1.58;72.65;100185.47;5344545;33;33447;-84
2022/12/13 11:24:36;;;;;;;10.73;6.85;;;;;;;1.75;70.99;100178.75;5336277;33;33556;-84
2022/12/13 11:27:54;;;;;;;13.07;7.15;;;;;;;1.87;69.21;100176.06;5326396;33;33466;-84
2022/12/13 11:31:01;;;;;;;12.25;7.32;;;;;;;2.03;68.94;100169.34;5346060;33;34456;-84
2022/12/13 11:34:31;;;;;;;12.05;7.12;;;;;;;2.23;69.60;100161.53;5353591;33;34113;-84
2022/12/13 11:37:51;;;;;;;12.75;7.43;;;;;;;2.70;67.64;100159.28;5350235;33;34479;-83
2022/12/13 11:41:16;;;;;;;11.43;7.07;;;;;;;2.75;65.61;100158.87;5333882;33;33952;-84
2022/12/13 11:44:37;;;;;;;11.80;6.40;;;;;;;3.13;65.25;100155.53;5331754;33;32802;-83
2022/12/13 11:48:08;;;;;;;12.25;7.57;;;;;;;3.34;63.53;100153.63;5351684;33;35530;-83
2022/12/13 11:51:17;;;;;;;11.23;7.07;;;;;;;3.75;64.36;100157.06;5309199;33;32387;-84
2022/12/13 11:54:58;;;;;;;10.40;6.40;;;;;;;4.27;62.08;100164.72;5342845;33;34849;-84
2022/12/13 11:58:08;;;;;;;11.50;7.30;;;;;;;4.65;59.77;100169.16;5326866;33;34269;-84
2022/12/13 12:01:15;;;;;;;11.98;7.80;;;;;;;4.67;59.48;100161.81;5355019;33;34262;-83
2022/12/13 12:04:28;;;;;;;11.77;7.32;;;;;;;5.22;57.07;100155.72;5343942;33;34404;-86
2022/12/13 12:07:31;;;;;;;12.55;6.97;;;;;;;5.85;55.26;100150.38;5338983;33;32724;-84
2022/12/13 12:10:39;;;;;;;13.27;7.28;;;;;;;6.32;52.54;100151.97;5340425;33;34699;-84
2022/12/13 12:14:12;;;;;;;13.95;7.68;;;;;;;7.19;51.66;100150.91;5330865;33;34058;-84
2022/12/13 12:17:22;;;;;;;11.63;7.57;;;;;;;8.03;49.28;100153.63;5336430;33;34181;-84
2022/12/13 12:20:59;;;;;;;11.60;7.07;;;;;;;7.20;49.10;100151.78;5344210;33;33923;-85
2022/12/13 12:24:50;;;;;;;11.52;7.62;;;;;;;7.39;48.41;100154.19;5333108;33;33847;-84
2022/12/13 12:28:17;;;;;;;12.68;7.00;;;;;;;7.80;48.78;100146.22;5273544;33;34556;-85
2022/12/13 12:31:29;;;;;;;12.15;6.50;;;;;;;8.16;47.95;100148.59;5343776;33;35254;-85
2022/12/13 12:34:35;;;;;;;12.35;7.07;;;;;;;9.65;44.53;100139.94;5344957;33;32938;-85
2022/12/13 12:38:06;;;;;;;12.02;7.37;;;;;;;11.33;41.02;100137.84;5339777;33;33922;-82
2022/12/13 12:41:11;;;;;;;12.37;6.70;;;;;;;12.38;38.10;100137.28;5337973;33;33890;-82
2022/12/13 12:44:26;;;;;;;9.75;6.90;;;;;;;13.00;35.13;100129.38;5344175;33;33905;-83
2022/12/13 12:48:35;;;;;;;10.43;6.28;;;;;;;13.92;34.38;100123.47;5344556;33;34480;-84
2022/12/13 12:52:26;;;;;;;9.65;6.70;;;;;;;14.87;32.77;100123.28;5340537;33;33943;-83
2022/12/13 12:55:56;;;;;;;9.90;6.93;;;;;;;14.27;30.90;100124.16;5331715;33;34151;-84
2022/12/13 12:59:20;;;;;;;12.73;7.62;;;;;;;13.16;32.81;100131.72;5337264;33;34711;-84
2022/12/13 13:02:31;;;;;;;13.25;7.28;;;;;;;11.66;34.65;100135.53;5325465;33;32291;-84
2022/12/13 13:05:41;;;;;;;13.23;7.70;;;;;;;10.05;38.76;100137.97;5335004;33;34403;-84
2022/12/13 13:08:58;;;;;;;10.15;7.55;;;;;;;7.93;42.54;100148.44;5341496;33;33639;-84
2022/12/13 13:12:04;;;;;;;11.98;7.12;;;;;;;6.49;45.71;100150.22;5329417;33;34193;-84
2022/12/13 13:15:30;;;;;;;13.07;7.72;;;;;;;5.18;48.67;100157.00;5332027;33;34449;-88
2022/12/13 13:18:54;;;;;;;13.35;7.97;;;;;;;3.94;54.08;100161.53;5331678;33;33740;-88
2022/12/13 13:21:58;;;;;;;15.57;7.93;;;;;;;3.13;57.46;100155.53;5336817;33;33595;-84
2022/12/13 13:25:07;;;;;;;12.18;7.55;;;;;;;2.61;59.84;100166.25;5326614;33;35473;-83
2022/12/13 13:28:16;;;;;;;13.88;7.35;;;;;;;2.69;59.79;100168.22;5336148;33;34074;-83
2022/12/13 13:31:19;;;;;;;12.50;6.97;;;;;;;2.28;61.16;100164.62;5334751;33;34605;-84
2022/12/13 13:34:31;;;;;;;14.60;6.12;;;;;;;2.25;61.27;100164.88;5339893;33;33609;-84
2022/12/13 13:37:47;;;;;;;11.85;6.93;;;;;;;1.81;62.78;100177.41;5328037;33;33205;-83
2022/12/13 13:40:52;;;;;;;13.30;6.70;;;;;;;1.61;62.77;100172.91;5326481;33;34615;-84
2022/12/13 13:43:59;;;;;;;16.77;7.03;;;;;;;1.53;64.13;100178.84;5330638;33;33953;-84
2022/12/13 13:47:15;;;;;;;11.00;6.40;;;;;;;1.40;64.30;100186.94;5335291;33;32240;-84
2022/12/13 13:50:34;;;;;;;12.55;6.47;;;;;;;1.16;67.16;100196.87;5329774;33;34394;-83
2022/12/13 13:53:49;;;;;;;13.75;6.72;;;;;;;0.97;68.29;100197.50;5332582;33;34833;-83
2022/12/13 13:57:24;;;;;;;8.48;5.35;;;;;;;0.86;68.28;100193.88;5330760;33;34064;-84
2022/12/13 14:01:25;;;;;;;9.50;5.28;;;;;;;0.74;67.97;100186.88;5333306;33;34480;-84
2022/12/13 14:05:04;;;;;;;9.75;5.62;;;;;;;0.74;66.65;100196.63;5348726;33;34287;-84
2022/12/13 14:08:18;;;;;;;11.02;5.75;;;;;;;0.53;70.92;100199.16;5324165;33;33858;-83
2022/12/13 14:11:41;;;;;;;9.15;5.32;;;;;;;0.37;68.87;100194.16;5328765;33;34826;-83
2022/12/13 14:15:14;;;;;;;16.30;5.18;;;;;;;0.26;70.85;100202.06;5323038;33;32537;-83
2022/12/13 14:18:38;;;;;;;15.00;5.68;;;;;;;0.30;69.86;100199.09;5340050;33;35294;-88
2022/12/13 14:22:14;;;;;;;14.30;6.07;;;;;;;0.12;71.36;100190.75;5345094;33;34604;-83
2022/12/13 14:25:34;;;;;;;8.80;4.85;;;;;;;-0.07;70.89;100185.97;5350684;33;34113;-83
2022/12/13 14:28:55;;;;;;;11.52;5.30;;;;;;;-0.17;72.50;100184.13;5338944;33;35318;-83
2022/12/13 14:32:27;;;;;;;13.43;5.30;;;;;;;-0.30;74.63;100186.81;5321581;33;32827;-85
2022/12/13 14:35:31;;;;;;;9.93;5.95;;;;;;;-0.43;76.08;100192.19;5326926;33;33466;-84
2022/12/13 14:38:34;;;;;;;8.73;4.95;;;;;;;-0.59;79.34;100188.94;5341162;33;34153;-84
2022/12/13 14:41:46;;;;;;;9.32;5.43;;;;;;;-0.72;77.89;100195.12;5340948;33;33712;-84
2022/12/13 14:44:50;;;;;;;12.52;5.82;;;;;;;-0.77;77.91;100189.31;5325807;33;33988;-84
2022/12/13 14:47:58;;;;;;;14.07;5.82;;;;;;;-0.83;79.30;100195.06;5324664;33;34468;-84
2022/12/13 14:51:04;;;;;;;11.18;5.82;;;;;;;-0.88;80.59;100191.88;5331477;33;34076;-90
2022/12/13 14:54:15;;;;;;;11.15;6.07;;;;;;;-0.98;80.05;100196.16;5331058;33;32882;-88
2022/12/13 14:57:24;;;;;;;9.85;5.45;;;;;;;-1.06;82.12;100199.31;5326533;33;33870;-85
2022/12/13 15:00:34;;;;;;;12.00;5.90;;;;;;;-1.16;84.62;100188.56;5329850;33;33950;-85
2022/12/13 15:03:38;;;;;;;13.27;6.55;;;;;;;-1.27;85.11;100192.91;5335783;33;34058;-84
2022/12/13 15:06:40;;;;;;;13.75;6.22;;;;;;;-1.37;86.49;100192.72;5341282;33;33968;-84
2022/12/13 15:09:57;;;;;;;12.35;5.97;;;;;;;-1.47;86.45;100205.69;5327075;33;32373;-85
2022/12/13 15:13:00;;;;;;;13.57;5.87;;;;;;;-1.53;87.32;100207.91;5328414;33;35087;-85
2022/12/13 15:16:09;;;;;;;10.25;6.20;;;;;;;-1.60;88.64;100216.25;5339099;33;33941;-84
2022/12/13 15:19:20;;;;;;;14.68;6.82;;;;;;;-1.68;90.14;100221.19;5336239;33;32526;-85
2022/12/13 15:22:35;;;;;;;15.23;7.03;;;;;;;-1.74;87.70;100224.25;5344747;33;34079;-84
2022/12/13 15:25:45;;;;;;;13.05;7.60;;;;;;;-1.65;89.38;100223.63;5343536;33;33904;-85
2022/12/13 15:28:54;;;;;;;17.37;8.02;;;;;;;-1.60;88.01;100216.25;5332899;33;33927;-85
2022/12/13 15:31:57;;;;;;;16.48;7.93;;;;;;;-1.61;88.86;100225.12;5343898;33;34704;-83
2022/12/13 15:35:16;;;;;;;16.98;10.43;;;;;;;-1.52;89.82;100235.97;5325647;33;34086;-82
2022/12/13 15:38:19;;;;;;;16.02;7.95;;;;;;;-1.41;89.00;100236.94;5333111;33;34250;-82
2022/12/13 15:41:40;;;;;;;23.23;8.10;;;;;;;-1.31;89.17;100238.97;5333108;33;33560;-83
2022/12/13 15:44:46;;;;;;;17.70;8.70;;;;;;;-1.22;88.34;100233.06;5317542;33;32404;-83
2022/12/13 15:47:51;;;;;;;13.07;7.60;;;;;;;-1.22;89.91;100235.69;5340588;33;34752;-86
2022/12/13 15:51:08;;;;;;;14.80;7.85;;;;;;;-1.35;90.54;100235.69;5315976;33;32598;-84
2022/12/13 15:54:11;;;;;;;18.08;7.90;;;;;;;-1.54;91.69;100236.09;5325799;33;33832;-83
2022/12/13 15:57:23;;;;;;;15.07;7.60;;;;;;;-1.54;91.74;100245.81;5329060;33;32197;-83
2022/12/13 16:00:33;;;;;;;15.48;7.93;;;;;;;-1.55;92.35;100242.34;5324255;33;32330;-83
2022/12/13 16:03:41;;;;;;;16.05;7.60;;;;;;;-1.47;92.91;100245.28;5325960;33;34755;-83
2022/12/13 16:06:48;;;;;;;17.02;8.18;;;;;;;-1.55;91.17;100252.91;5326413;33;33971;-83
2022/12/13 16:09:56;;;;;;;17.45;7.95;;;;;;;-1.61;91.78;100259.44;5336189;33;33797;-82
2022/12/13 16:13:02;;;;;;;17.08;8.23;;;;;;;-1.67;92.83;100253.69;5330127;33;35158;-83
2022/12/13 16:16:22;;;;;;;15.60;8.15;;;;;;;-1.78;93.37;100262.34;5324992;33;32128;-83
2022/12/13 16:19:29;;;;;;;18.50;7.62;;;;;;;-1.80;93.42;100260.75;5324494;33;33217;-83
2022/12/13 16:22:33;;;;;;;12.95;7.70;;;;;;;-1.88;94.54;100256.81;5325859;33;33568;-83
2022/12/13 16:25:35;;;;;;;20.40;8.18;;;;;;;-1.88;95.95;100256.81;5325910;33;35327;-83
2022/12/13 16:28:39;;;;;;;14.70;7.62;;;;;;;-1.73;93.59;100259.41;5326034;33;34660;-83
2022/12/13 16:31:45;;;;;;;16.75;7.60;;;;;;;-1.76;94.54;100241.97;5325823;33;35037;-83
2022/12/13 16:34:48;;;;;;;22.08;8.60;;;;;;;-1.76;94.26;100249.88;5326071;33;33880;-83
2022/12/13 16:37:52;;;;;;;19.05;8.13;;;;;;;-1.74;94.06;100255.06;5325897;33;34125;-83
2022/12/13 16:41:05;;;;;;;17.70;8.05;;;;;;;-1.72;94.36;100250.53;5326052;33;35516;-83
2022/12/13 16:44:39;;;;;;;16.92;8.13;;;;;;;-1.74;94.05;100248.00;5333626;33;33785;-83
2022/12/13 16:47:45;;;;;;;16.50;8.85;;;;;;;-1.80;94.20;100248.41;5337947;33;35314;-87
2022/12/13 16:50:54;;;;;;;15.32;7.70;;;;;;;-1.86;95.67;100254.09;5332891;33;34085;-84
